sensor_id;sensor_type;location;lat;lon;timestamp;P1;durP1;ratioP1;P2;durP2;ratioP2
44762;SDS011;30483;49.576;6.036;2024-02-26T04:34:20;0.45;;;0.45;;
44762;SDS011;30483;49.576;6.036;2024-02-26T04:36:46;0.60;;;0.40;;
44762;SDS011;30483;49.576;6.036;2024-02-26T04:39:13;2.30;;;0.50;;
44762;SDS011;30483;49.576;6.036;2024-02-26T04:41:39;1.42;;;0.50;;
44762;SDS011;30483;49.576;6.036;2024-02-26T04:44:05;0.75;;;0.50;;
44762;SDS011;30483;49.576;6.036;2024-02-26T04:46:31;1.65;;;0.60;;
44762;SDS011;30483;49.576;6.036;2024-02-26T04:48:57;0.70;;;0.45;;
44762;SDS011;30483;49.576;6.036;2024-02-26T04:51:23;0.50;;;0.47;;
44762;SDS011;30483;49.576;6.036;2024-02-26T04:53:49;0.40;;;0.30;;
44762;SDS011;30483;49.576;6.036;2024-02-26T04:56:15;0.75;;;0.60;;
44762;SDS011;30483;49.576;6.036;2024-02-26T04:58:41;0.52;;;0.50;;
44762;SDS011;30483;49.576;6.036;2024-02-26T05:01:07;0.70;;;0.50;;
44762;SDS011;30483;49.576;6.036;2024-02-26T05:03:35;0.57;;;0.57;;
44762;SDS011;30483;49.576;6.036;2024-02-26T05:06:01;1.00;;;0.60;;
44762;SDS011;30483;49.576;6.036;2024-02-26T05:08:27;0.50;;;0.50;;
44762;SDS011;30483;49.576;6.036;2024-02-26T05:10:54;0.50;;;0.40;;
44762;SDS011;30483;49.576;6.036;2024-02-26T05:13:20;1.00;;;0.50;;
44762;SDS011;30483;49.576;6.036;2024-02-26T05:15:46;0.88;;;0.40;;
44762;SDS011;30483;49.576;6.036;2024-02-26T05:18:14;0.45;;;0.40;;
44762;SDS011;30483;49.576;6.036;2024-02-26T05:20:40;1.30;;;0.57;;
44762;SDS011;30483;49.576;6.036;2024-02-26T05:23:06;0.88;;;0.52;;
44762;SDS011;30483;49.576;6.036;2024-02-26T05:25:32;0.52;;;0.40;;
44762;SDS011;30483;49.576;6.036;2024-02-26T05:27:58;1.50;;;0.50;;
44762;SDS011;30483;49.576;6.036;2024-02-26T05:30:24;1.05;;;0.50;;
44762;SDS011;30483;49.576;6.036;2024-02-26T05:32:52;0.47;;;0.40;;
44762;SDS011;30483;49.576;6.036;2024-02-26T05:35:18;1.10;;;0.30;;
44762;SDS011;30483;49.576;6.036;2024-02-26T05:37:43;0.63;;;0.35;;
44762;SDS011;30483;49.576;6.036;2024-02-26T05:40:10;0.95;;;0.50;;
44762;SDS011;30483;49.576;6.036;2024-02-26T05:42:36;0.40;;;0.30;;
44762;SDS011;30483;49.576;6.036;2024-02-26T05:45:02;0.65;;;0.50;;
44762;SDS011;30483;49.576;6.036;2024-02-26T05:47:35;1.25;;;0.50;;
44762;SDS011;30483;49.576;6.036;2024-02-26T05:50:01;0.60;;;0.40;;
44762;SDS011;30483;49.576;6.036;2024-02-26T05:52:27;2.72;;;0.40;;
44762;SDS011;30483;49.576;6.036;2024-02-26T05:54:54;1.25;;;0.70;;
44762;SDS011;30483;49.576;6.036;2024-02-26T05:57:20;1.98;;;0.40;;
44762;SDS011;30483;49.576;6.036;2024-02-26T05:59:46;4.05;;;2.17;;
44762;SDS011;30483;49.576;6.036;2024-02-26T06:02:12;4.72;;;2.42;;
44762;SDS011;30483;49.576;6.036;2024-02-26T06:04:38;2.60;;;1.80;;
44762;SDS011;30483;49.576;6.036;2024-02-26T06:07:04;1.60;;;1.50;;
44762;SDS011;30483;49.576;6.036;2024-02-26T06:09:30;1.73;;;1.42;;
44762;SDS011;30483;49.576;6.036;2024-02-26T06:11:56;1.75;;;1.40;;
44762;SDS011;30483;49.576;6.036;2024-02-26T06:14:22;2.28;;;1.10;;
44762;SDS011;30483;49.576;6.036;2024-02-26T06:16:48;1.73;;;1.10;;
44762;SDS011;30483;49.576;6.036;2024-02-26T06:19:14;2.78;;;1.00;;
44762;SDS011;30483;49.576;6.036;2024-02-26T06:21:40;3.20;;;0.50;;
44762;SDS011;30483;49.576;6.036;2024-02-26T06:24:06;0.68;;;0.45;;
44762;SDS011;30483;49.576;6.036;2024-02-26T06:26:32;1.88;;;0.63;;
44762;SDS011;30483;49.576;6.036;2024-02-26T06:28:58;0.85;;;0.50;;
44762;SDS011;30483;49.576;6.036;2024-02-26T06:31:24;0.60;;;0.43;;
44762;SDS011;30483;49.576;6.036;2024-02-26T06:33:52;0.50;;;0.50;;
44762;SDS011;30483;49.576;6.036;2024-02-26T06:36:18;0.63;;;0.50;;
44762;SDS011;30483;49.576;6.036;2024-02-26T06:38:44;2.17;;;0.50;;
44762;SDS011;30483;49.576;6.036;2024-02-26T06:41:09;1.25;;;0.52;;
44762;SDS011;30483;49.576;6.036;2024-02-26T06:43:36;0.50;;;0.30;;
44762;SDS011;30483;49.576;6.036;2024-02-26T06:46:02;0.73;;;0.40;;
44762;SDS011;30483;49.576;6.036;2024-02-26T06:48:27;0.40;;;0.30;;
44762;SDS011;30483;49.576;6.036;2024-02-26T06:50:53;0.60;;;0.40;;
44762;SDS011;30483;49.576;6.036;2024-02-26T06:53:20;0.75;;;0.47;;
44762;SDS011;30483;49.576;6.036;2024-02-26T06:55:45;0.82;;;0.80;;
44762;SDS011;30483;49.576;6.036;2024-02-26T06:58:11;0.98;;;0.80;;
44762;SDS011;30483;49.576;6.036;2024-02-26T07:00:37;0.73;;;0.60;;
44762;SDS011;30483;49.576;6.036;2024-02-26T07:03:03;0.73;;;0.60;;
44762;SDS011;30483;49.576;6.036;2024-02-26T07:05:28;2.60;;;0.65;;
44762;SDS011;30483;49.576;6.036;2024-02-26T07:07:54;1.33;;;0.70;;
44762;SDS011;30483;49.576;6.036;2024-02-26T07:10:20;0.70;;;0.60;;
44762;SDS011;30483;49.576;6.036;2024-02-26T07:12:46;0.93;;;0.85;;
44762;SDS011;30483;49.576;6.036;2024-02-26T07:15:11;0.80;;;0.80;;
44762;SDS011;30483;49.576;6.036;2024-02-26T07:17:37;0.85;;;0.85;;
44762;SDS011;30483;49.576;6.036;2024-02-26T07:20:06;1.67;;;0.77;;
44762;SDS011;30483;49.576;6.036;2024-02-26T07:22:33;0.95;;;0.80;;
44762;SDS011;30483;49.576;6.036;2024-02-26T07:24:58;1.02;;;0.98;;
44762;SDS011;30483;49.576;6.036;2024-02-26T07:27:24;1.17;;;1.08;;
44762;SDS011;30483;49.576;6.036;2024-02-26T07:29:50;1.30;;;1.20;;
44762;SDS011;30483;49.576;6.036;2024-02-26T07:32:15;0.90;;;0.90;;
44762;SDS011;30483;49.576;6.036;2024-02-26T07:34:41;1.27;;;1.17;;
44762;SDS011;30483;49.576;6.036;2024-02-26T07:37:10;2.15;;;1.00;;
44762;SDS011;30483;49.576;6.036;2024-02-26T07:39:36;2.30;;;1.10;;
44762;SDS011;30483;49.576;6.036;2024-02-26T07:42:02;1.67;;;1.20;;
44762;SDS011;30483;49.576;6.036;2024-02-26T07:44:28;3.25;;;1.40;;
44762;SDS011;30483;49.576;6.036;2024-02-26T07:46:53;1.65;;;1.40;;
44762;SDS011;30483;49.576;6.036;2024-02-26T07:49:19;1.55;;;1.20;;
44762;SDS011;30483;49.576;6.036;2024-02-26T07:51:45;1.48;;;1.33;;
44762;SDS011;30483;49.576;6.036;2024-02-26T07:54:10;1.50;;;1.33;;
44762;SDS011;30483;49.576;6.036;2024-02-26T07:56:36;1.70;;;1.35;;
44762;SDS011;30483;49.576;6.036;2024-02-26T07:59:02;3.00;;;1.55;;
44762;SDS011;30483;49.576;6.036;2024-02-26T08:01:27;1.67;;;1.50;;
44762;SDS011;30483;49.576;6.036;2024-02-26T08:03:53;2.40;;;1.92;;
44762;SDS011;30483;49.576;6.036;2024-02-26T08:06:19;2.05;;;1.58;;
44762;SDS011;30483;49.576;6.036;2024-02-26T08:08:45;3.10;;;1.98;;
44762;SDS011;30483;49.576;6.036;2024-02-26T08:11:10;4.82;;;2.33;;
44762;SDS011;30483;49.576;6.036;2024-02-26T08:13:36;3.28;;;2.45;;
44762;SDS011;30483;49.576;6.036;2024-02-26T08:16:01;2.75;;;2.28;;
44762;SDS011;30483;49.576;6.036;2024-02-26T08:18:27;3.35;;;2.50;;
44762;SDS011;30483;49.576;6.036;2024-02-26T08:20:53;2.63;;;2.40;;
44762;SDS011;30483;49.576;6.036;2024-02-26T08:23:18;3.30;;;2.58;;
44762;SDS011;30483;49.576;6.036;2024-02-26T08:25:44;3.22;;;2.42;;
44762;SDS011;30483;49.576;6.036;2024-02-26T08:28:09;2.63;;;2.30;;
44762;SDS011;30483;49.576;6.036;2024-02-26T08:30:38;2.65;;;2.33;;
44762;SDS011;30483;49.576;6.036;2024-02-26T08:33:04;2.40;;;2.20;;
44762;SDS011;30483;49.576;6.036;2024-02-26T08:35:29;2.40;;;2.10;;
44762;SDS011;30483;49.576;6.036;2024-02-26T08:37:55;2.25;;;1.95;;
44762;SDS011;30483;49.576;6.036;2024-02-26T08:40:21;2.78;;;1.92;;
44762;SDS011;30483;49.576;6.036;2024-02-26T08:42:47;3.15;;;1.77;;
44762;SDS011;30483;49.576;6.036;2024-02-26T08:45:12;3.47;;;1.90;;
44762;SDS011;30483;49.576;6.036;2024-02-26T08:47:38;2.85;;;1.95;;
44762;SDS011;30483;49.576;6.036;2024-02-26T08:50:04;2.00;;;1.70;;
44762;SDS011;30483;49.576;6.036;2024-02-26T08:52:31;1.70;;;1.60;;
44762;SDS011;30483;49.576;6.036;2024-02-26T08:54:56;1.70;;;1.60;;
44762;SDS011;30483;49.576;6.036;2024-02-26T08:57:22;1.98;;;1.60;;
44762;SDS011;30483;49.576;6.036;2024-02-26T08:59:48;1.33;;;1.10;;
44762;SDS011;30483;49.576;6.036;2024-02-26T09:02:14;1.40;;;1.30;;
44762;SDS011;30483;49.576;6.036;2024-02-26T09:04:39;1.30;;;0.90;;
44762;SDS011;30483;49.576;6.036;2024-02-26T09:07:05;1.05;;;1.00;;
44762;SDS011;30483;49.576;6.036;2024-02-26T09:09:31;0.85;;;0.85;;
44762;SDS011;30483;49.576;6.036;2024-02-26T09:11:57;0.85;;;0.80;;
44762;SDS011;30483;49.576;6.036;2024-02-26T09:14:23;1.60;;;0.90;;
44762;SDS011;30483;49.576;6.036;2024-02-26T09:16:49;1.55;;;0.98;;
44762;SDS011;30483;49.576;6.036;2024-02-26T09:19:14;1.27;;;0.90;;
44762;SDS011;30483;49.576;6.036;2024-02-26T09:21:43;0.95;;;0.88;;
44762;SDS011;30483;49.576;6.036;2024-02-26T09:24:10;1.40;;;1.30;;
44762;SDS011;30483;49.576;6.036;2024-02-26T09:26:36;1.77;;;1.20;;
44762;SDS011;30483;49.576;6.036;2024-02-26T09:29:02;2.58;;;1.10;;
44762;SDS011;30483;49.576;6.036;2024-02-26T09:31:29;2.40;;;1.05;;
44762;SDS011;30483;49.576;6.036;2024-02-26T09:33:54;1.15;;;1.02;;
44762;SDS011;30483;49.576;6.036;2024-02-26T09:36:20;3.13;;;1.30;;
44762;SDS011;30483;49.576;6.036;2024-02-26T09:38:47;1.80;;;1.63;;
44762;SDS011;30483;49.576;6.036;2024-02-26T09:41:15;4.20;;;1.70;;
44762;SDS011;30483;49.576;6.036;2024-02-26T09:43:43;2.10;;;1.40;;
44762;SDS011;30483;49.576;6.036;2024-02-26T09:46:13;2.80;;;1.58;;
44762;SDS011;30483;49.576;6.036;2024-02-26T09:48:40;2.90;;;1.50;;
44762;SDS011;30483;49.576;6.036;2024-02-26T09:51:08;2.22;;;1.50;;
44762;SDS011;30483;49.576;6.036;2024-02-26T09:53:36;2.85;;;1.42;;
44762;SDS011;30483;49.576;6.036;2024-02-26T09:56:07;1.83;;;1.60;;
44762;SDS011;30483;49.576;6.036;2024-02-26T09:58:33;3.13;;;1.73;;
44762;SDS011;30483;49.576;6.036;2024-02-26T10:01:00;3.13;;;1.40;;
44762;SDS011;30483;49.576;6.036;2024-02-26T10:03:28;1.85;;;1.30;;
44762;SDS011;30483;49.576;6.036;2024-02-26T10:06:09;1.45;;;1.02;;
44762;SDS011;30483;49.576;6.036;2024-02-26T10:08:35;1.75;;;1.10;;
44762;SDS011;30483;49.576;6.036;2024-02-26T10:11:02;3.28;;;1.50;;
44762;SDS011;30483;49.576;6.036;2024-02-26T10:13:28;2.10;;;1.23;;
44762;SDS011;30483;49.576;6.036;2024-02-26T10:15:54;2.40;;;1.20;;
44762;SDS011;30483;49.576;6.036;2024-02-26T10:18:19;1.80;;;1.02;;
44762;SDS011;30483;49.576;6.036;2024-02-26T10:21:00;2.67;;;1.05;;
44762;SDS011;30483;49.576;6.036;2024-02-26T10:23:26;2.67;;;1.10;;
44762;SDS011;30483;49.576;6.036;2024-02-26T10:25:53;3.25;;;1.20;;
44762;SDS011;30483;49.576;6.036;2024-02-26T10:28:20;2.60;;;0.95;;
44762;SDS011;30483;49.576;6.036;2024-02-26T10:30:45;1.67;;;1.05;;
44762;SDS011;30483;49.576;6.036;2024-02-26T10:33:11;1.30;;;0.80;;
44762;SDS011;30483;49.576;6.036;2024-02-26T10:35:39;1.88;;;0.98;;
44762;SDS011;30483;49.576;6.036;2024-02-26T10:38:06;0.93;;;0.80;;
44762;SDS011;30483;49.576;6.036;2024-02-26T10:40:32;1.60;;;1.00;;
44762;SDS011;30483;49.576;6.036;2024-02-26T10:42:58;1.35;;;1.00;;
44762;SDS011;30483;49.576;6.036;2024-02-26T10:45:24;1.35;;;1.00;;
44762;SDS011;30483;49.576;6.036;2024-02-26T10:47:50;1.05;;;0.90;;
44762;SDS011;30483;49.576;6.036;2024-02-26T10:50:16;1.40;;;0.85;;
44762;SDS011;30483;49.576;6.036;2024-02-26T10:52:42;1.08;;;0.88;;
44762;SDS011;30483;49.576;6.036;2024-02-26T10:55:07;1.23;;;0.90;;
44762;SDS011;30483;49.576;6.036;2024-02-26T10:57:44;1.20;;;0.85;;
44762;SDS011;30483;49.576;6.036;2024-02-26T11:00:13;2.67;;;0.85;;
44762;SDS011;30483;49.576;6.036;2024-02-26T11:02:40;1.95;;;0.80;;
44762;SDS011;30483;49.576;6.036;2024-02-26T11:05:07;1.45;;;0.88;;
44762;SDS011;30483;49.576;6.036;2024-02-26T11:07:36;5.20;;;1.13;;
44762;SDS011;30483;49.576;6.036;2024-02-26T11:10:04;1.08;;;0.90;;
44762;SDS011;30483;49.576;6.036;2024-02-26T11:12:31;0.98;;;0.70;;
44762;SDS011;30483;49.576;6.036;2024-02-26T11:15:00;1.55;;;0.80;;
44762;SDS011;30483;49.576;6.036;2024-02-26T11:17:26;1.08;;;0.95;;
44762;SDS011;30483;49.576;6.036;2024-02-26T11:22:23;1.83;;;0.90;;
44762;SDS011;30483;49.576;6.036;2024-02-26T11:24:51;2.80;;;0.80;;
44762;SDS011;30483;49.576;6.036;2024-02-26T11:27:18;1.83;;;0.90;;
44762;SDS011;30483;49.576;6.036;2024-02-26T11:29:50;2.20;;;0.90;;
44762;SDS011;30483;49.576;6.036;2024-02-26T11:32:17;0.85;;;0.82;;
44762;SDS011;30483;49.576;6.036;2024-02-26T11:34:43;1.00;;;0.80;;
44762;SDS011;30483;49.576;6.036;2024-02-26T11:37:10;1.00;;;0.80;;
44762;SDS011;30483;49.576;6.036;2024-02-26T11:42:06;1.08;;;0.85;;
44762;SDS011;30483;49.576;6.036;2024-02-26T11:47:14;1.15;;;0.90;;
44762;SDS011;30483;49.576;6.036;2024-02-26T11:49:44;1.13;;;0.75;;
44762;SDS011;30483;49.576;6.036;2024-02-26T11:52:09;0.73;;;0.70;;
44762;SDS011;30483;49.576;6.036;2024-02-26T12:00:14;1.58;;;1.10;;
44762;SDS011;30483;49.576;6.036;2024-02-26T12:02:49;1.63;;;0.90;;
44762;SDS011;30483;49.576;6.036;2024-02-26T12:05:22;1.98;;;0.80;;
44762;SDS011;30483;49.576;6.036;2024-02-26T12:07:49;1.33;;;0.82;;
44762;SDS011;30483;49.576;6.036;2024-02-26T12:15:31;1.10;;;0.85;;
44762;SDS011;30483;49.576;6.036;2024-02-26T12:18:01;0.90;;;0.75;;
44762;SDS011;30483;49.576;6.036;2024-02-26T12:20:28;0.70;;;0.60;;
44762;SDS011;30483;49.576;6.036;2024-02-26T12:22:54;0.80;;;0.75;;
44762;SDS011;30483;49.576;6.036;2024-02-26T12:25:22;1.02;;;0.80;;
44762;SDS011;30483;49.576;6.036;2024-02-26T12:27:49;0.93;;;0.90;;
44762;SDS011;30483;49.576;6.036;2024-02-26T12:30:14;1.38;;;0.90;;
44762;SDS011;30483;49.576;6.036;2024-02-26T12:32:40;1.55;;;0.82;;
44762;SDS011;30483;49.576;6.036;2024-02-26T12:35:06;1.50;;;0.88;;
44762;SDS011;30483;49.576;6.036;2024-02-26T12:37:32;1.00;;;0.75;;
44762;SDS011;30483;49.576;6.036;2024-02-26T12:39:57;1.05;;;0.93;;
44762;SDS011;30483;49.576;6.036;2024-02-26T12:42:23;1.73;;;1.02;;
44762;SDS011;30483;49.576;6.036;2024-02-26T12:44:49;1.40;;;0.90;;
44762;SDS011;30483;49.576;6.036;2024-02-26T12:47:17;1.80;;;1.10;;
44762;SDS011;30483;49.576;6.036;2024-02-26T12:49:43;1.27;;;1.08;;
44762;SDS011;30483;49.576;6.036;2024-02-26T12:52:12;1.30;;;1.20;;
44762;SDS011;30483;49.576;6.036;2024-02-26T12:54:38;1.45;;;1.02;;
44762;SDS011;30483;49.576;6.036;2024-02-26T12:57:05;1.27;;;1.10;;
44762;SDS011;30483;49.576;6.036;2024-02-26T12:59:33;1.50;;;1.00;;
44762;SDS011;30483;49.576;6.036;2024-02-26T13:02:00;1.60;;;1.00;;
44762;SDS011;30483;49.576;6.036;2024-02-26T13:04:27;2.30;;;0.90;;
44762;SDS011;30483;49.576;6.036;2024-02-26T13:06:54;1.10;;;1.00;;
44762;SDS011;30483;49.576;6.036;2024-02-26T13:09:20;1.48;;;1.00;;
44762;SDS011;30483;49.576;6.036;2024-02-26T13:11:53;1.05;;;1.00;;
44762;SDS011;30483;49.576;6.036;2024-02-26T13:14:19;1.80;;;1.10;;
44762;SDS011;30483;49.576;6.036;2024-02-26T13:16:53;1.92;;;1.20;;
44762;SDS011;30483;49.576;6.036;2024-02-26T13:19:20;3.55;;;1.13;;
44762;SDS011;30483;49.576;6.036;2024-02-26T13:21:46;3.00;;;1.27;;
44762;SDS011;30483;49.576;6.036;2024-02-26T13:24:14;1.30;;;1.17;;
44762;SDS011;30483;49.576;6.036;2024-02-26T13:26:40;3.05;;;1.27;;
44762;SDS011;30483;49.576;6.036;2024-02-26T13:29:06;2.80;;;1.40;;
44762;SDS011;30483;49.576;6.036;2024-02-26T13:31:31;2.95;;;1.40;;
44762;SDS011;30483;49.576;6.036;2024-02-26T13:34:03;1.50;;;1.30;;
44762;SDS011;30483;49.576;6.036;2024-02-26T13:36:29;2.35;;;1.20;;
44762;SDS011;30483;49.576;6.036;2024-02-26T13:38:55;2.63;;;1.05;;
44762;SDS011;30483;49.576;6.036;2024-02-26T13:41:21;2.35;;;1.33;;
44762;SDS011;30483;49.576;6.036;2024-02-26T13:43:47;1.63;;;1.20;;
44762;SDS011;30483;49.576;6.036;2024-02-26T13:46:13;1.25;;;1.10;;
44762;SDS011;30483;49.576;6.036;2024-02-26T13:48:40;1.52;;;1.10;;
44762;SDS011;30483;49.576;6.036;2024-02-26T13:51:09;1.45;;;1.00;;
44762;SDS011;30483;49.576;6.036;2024-02-26T13:53:35;1.42;;;0.95;;
44762;SDS011;30483;49.576;6.036;2024-02-26T13:56:00;2.28;;;1.38;;
44762;SDS011;30483;49.576;6.036;2024-02-26T13:58:29;1.38;;;0.90;;
44762;SDS011;30483;49.576;6.036;2024-02-26T14:00:54;1.98;;;1.10;;
44762;SDS011;30483;49.576;6.036;2024-02-26T14:03:20;1.40;;;0.98;;
44762;SDS011;30483;49.576;6.036;2024-02-26T14:05:46;2.17;;;0.93;;
44762;SDS011;30483;49.576;6.036;2024-02-26T14:08:11;2.60;;;0.90;;
44762;SDS011;30483;49.576;6.036;2024-02-26T14:10:38;2.95;;;1.20;;
44762;SDS011;30483;49.576;6.036;2024-02-26T14:13:04;4.03;;;1.48;;
44762;SDS011;30483;49.576;6.036;2024-02-26T14:15:29;2.25;;;1.00;;
44762;SDS011;30483;49.576;6.036;2024-02-26T14:17:55;1.45;;;0.93;;
44762;SDS011;30483;49.576;6.036;2024-02-26T14:20:22;3.15;;;1.13;;
44762;SDS011;30483;49.576;6.036;2024-02-26T14:22:49;3.45;;;1.00;;
44762;SDS011;30483;49.576;6.036;2024-02-26T14:25:17;3.20;;;1.55;;
44762;SDS011;30483;49.576;6.036;2024-02-26T14:27:42;1.88;;;1.10;;
44762;SDS011;30483;49.576;6.036;2024-02-26T14:30:08;1.90;;;1.20;;
44762;SDS011;30483;49.576;6.036;2024-02-26T14:32:34;1.75;;;1.25;;
44762;SDS011;30483;49.576;6.036;2024-02-26T14:35:00;2.88;;;1.52;;
44762;SDS011;30483;49.576;6.036;2024-02-26T14:37:26;2.47;;;1.33;;
44762;SDS011;30483;49.576;6.036;2024-02-26T14:39:51;2.70;;;1.38;;
44762;SDS011;30483;49.576;6.036;2024-02-26T14:42:18;3.38;;;1.50;;
44762;SDS011;30483;49.576;6.036;2024-02-26T14:44:43;2.95;;;1.27;;
44762;SDS011;30483;49.576;6.036;2024-02-26T14:47:09;3.67;;;1.90;;
44762;SDS011;30483;49.576;6.036;2024-02-26T14:49:35;1.92;;;1.42;;
44762;SDS011;30483;49.576;6.036;2024-02-26T14:52:01;4.05;;;1.90;;
44762;SDS011;30483;49.576;6.036;2024-02-26T14:54:28;3.78;;;1.83;;
44762;SDS011;30483;49.576;6.036;2024-02-26T14:56:57;5.20;;;1.80;;
44762;SDS011;30483;49.576;6.036;2024-02-26T14:59:23;3.03;;;1.70;;
44762;SDS011;30483;49.576;6.036;2024-02-26T15:01:49;3.40;;;1.73;;
44762;SDS011;30483;49.576;6.036;2024-02-26T15:04:14;6.53;;;1.67;;
44762;SDS011;30483;49.576;6.036;2024-02-26T15:06:40;2.17;;;1.50;;
44762;SDS011;30483;49.576;6.036;2024-02-26T15:09:06;3.10;;;1.60;;
44762;SDS011;30483;49.576;6.036;2024-02-26T15:11:32;5.40;;;1.50;;
44762;SDS011;30483;49.576;6.036;2024-02-26T15:13:58;2.50;;;1.63;;
44762;SDS011;30483;49.576;6.036;2024-02-26T15:16:24;2.88;;;1.40;;
44762;SDS011;30483;49.576;6.036;2024-02-26T15:18:50;2.90;;;1.40;;
44762;SDS011;30483;49.576;6.036;2024-02-26T15:21:15;1.98;;;1.08;;
44762;SDS011;30483;49.576;6.036;2024-02-26T15:23:44;4.05;;;1.33;;
44762;SDS011;30483;49.576;6.036;2024-02-26T15:26:10;14.98;;;2.17;;
44762;SDS011;30483;49.576;6.036;2024-02-26T15:28:36;16.45;;;1.63;;
44762;SDS011;30483;49.576;6.036;2024-02-26T15:31:01;3.40;;;1.30;;
44762;SDS011;30483;49.576;6.036;2024-02-26T15:33:27;3.22;;;1.30;;
44762;SDS011;30483;49.576;6.036;2024-02-26T15:35:53;3.72;;;1.30;;
44762;SDS011;30483;49.576;6.036;2024-02-26T15:38:18;5.22;;;1.50;;
44762;SDS011;30483;49.576;6.036;2024-02-26T15:40:44;2.67;;;1.20;;
44762;SDS011;30483;49.576;6.036;2024-02-26T15:43:12;3.22;;;1.25;;
44762;SDS011;30483;49.576;6.036;2024-02-26T15:45:38;1.23;;;1.10;;
44762;SDS011;30483;49.576;6.036;2024-02-26T15:48:04;2.03;;;0.93;;
44762;SDS011;30483;49.576;6.036;2024-02-26T15:50:30;5.32;;;1.10;;
44762;SDS011;30483;49.576;6.036;2024-02-26T15:52:55;2.90;;;1.05;;
44762;SDS011;30483;49.576;6.036;2024-02-26T15:55:23;1.80;;;1.00;;
44762;SDS011;30483;49.576;6.036;2024-02-26T15:57:49;4.22;;;1.00;;
44762;SDS011;30483;49.576;6.036;2024-02-26T16:00:15;3.70;;;1.20;;
44762;SDS011;30483;49.576;6.036;2024-02-26T16:02:41;2.38;;;1.20;;
44762;SDS011;30483;49.576;6.036;2024-02-26T16:05:07;1.67;;;1.20;;
44762;SDS011;30483;49.576;6.036;2024-02-26T16:10:31;2.40;;;1.20;;
44762;SDS011;30483;49.576;6.036;2024-02-26T16:12:58;2.55;;;1.08;;
44762;SDS011;30483;49.576;6.036;2024-02-26T16:15:26;1.65;;;1.13;;
44762;SDS011;30483;49.576;6.036;2024-02-26T16:17:52;1.40;;;1.00;;
44762;SDS011;30483;49.576;6.036;2024-02-26T16:20:21;2.58;;;0.82;;
44762;SDS011;30483;49.576;6.036;2024-02-26T16:22:49;1.35;;;0.80;;
44762;SDS011;30483;49.576;6.036;2024-02-26T16:25:16;1.45;;;0.90;;
44762;SDS011;30483;49.576;6.036;2024-02-26T16:27:43;1.90;;;0.80;;
44762;SDS011;30483;49.576;6.036;2024-02-26T16:30:09;2.20;;;0.80;;
44762;SDS011;30483;49.576;6.036;2024-02-26T16:32:35;1.63;;;0.80;;
44762;SDS011;30483;49.576;6.036;2024-02-26T16:35:05;2.92;;;0.88;;
44762;SDS011;30483;49.576;6.036;2024-02-26T16:37:32;2.67;;;0.70;;
44762;SDS011;30483;49.576;6.036;2024-02-26T16:39:58;0.60;;;0.50;;
44762;SDS011;30483;49.576;6.036;2024-02-26T16:42:25;1.08;;;0.70;;
44762;SDS011;30483;49.576;6.036;2024-02-26T16:44:52;1.00;;;0.70;;
44762;SDS011;30483;49.576;6.036;2024-02-26T16:47:18;1.20;;;0.70;;
44762;SDS011;30483;49.576;6.036;2024-02-26T16:49:44;2.28;;;0.80;;
44762;SDS011;30483;49.576;6.036;2024-02-26T16:52:11;1.40;;;0.77;;
44762;SDS011;30483;49.576;6.036;2024-02-26T16:54:37;1.52;;;0.82;;
44762;SDS011;30483;49.576;6.036;2024-02-26T16:57:02;2.08;;;0.90;;
44762;SDS011;30483;49.576;6.036;2024-02-26T16:59:28;1.00;;;0.60;;
44762;SDS011;30483;49.576;6.036;2024-02-26T17:01:54;0.82;;;0.60;;
44762;SDS011;30483;49.576;6.036;2024-02-26T17:04:21;1.08;;;0.73;;
44762;SDS011;30483;49.576;6.036;2024-02-26T17:06:48;2.63;;;1.02;;
44762;SDS011;30483;49.576;6.036;2024-02-26T17:09:14;1.10;;;0.65;;
44762;SDS011;30483;49.576;6.036;2024-02-26T17:11:40;1.50;;;0.80;;
44762;SDS011;30483;49.576;6.036;2024-02-26T17:14:06;1.23;;;0.73;;
44762;SDS011;30483;49.576;6.036;2024-02-26T17:16:32;2.60;;;0.82;;
44762;SDS011;30483;49.576;6.036;2024-02-26T17:18:57;2.80;;;0.95;;
44762;SDS011;30483;49.576;6.036;2024-02-26T17:21:24;1.35;;;0.90;;
44762;SDS011;30483;49.576;6.036;2024-02-26T17:23:49;1.67;;;0.98;;
44762;SDS011;30483;49.576;6.036;2024-02-26T17:26:19;1.52;;;0.80;;
44762;SDS011;30483;49.576;6.036;2024-02-26T17:28:47;1.13;;;0.70;;
44762;SDS011;30483;49.576;6.036;2024-02-26T17:31:13;1.77;;;0.70;;
44762;SDS011;30483;49.576;6.036;2024-02-26T17:33:40;1.40;;;0.73;;
44762;SDS011;30483;49.576;6.036;2024-02-26T17:36:06;1.45;;;0.85;;
44762;SDS011;30483;49.576;6.036;2024-02-26T17:38:35;1.02;;;0.80;;
44762;SDS011;30483;49.576;6.036;2024-02-26T17:41:01;1.85;;;0.95;;
44762;SDS011;30483;49.576;6.036;2024-02-26T17:43:28;1.77;;;1.00;;
44762;SDS011;30483;49.576;6.036;2024-02-26T17:45:53;2.60;;;0.90;;
44762;SDS011;30483;49.576;6.036;2024-02-26T17:48:19;1.73;;;0.90;;
44762;SDS011;30483;49.576;6.036;2024-02-26T17:50:45;2.03;;;0.98;;
44762;SDS011;30483;49.576;6.036;2024-02-26T17:53:10;1.52;;;0.98;;
44762;SDS011;30483;49.576;6.036;2024-02-26T17:55:38;1.98;;;1.00;;
44762;SDS011;30483;49.576;6.036;2024-02-26T17:58:04;1.25;;;1.00;;
44762;SDS011;30483;49.576;6.036;2024-02-26T18:00:30;2.05;;;1.13;;
44762;SDS011;30483;49.576;6.036;2024-02-26T18:02:57;1.10;;;0.80;;
44762;SDS011;30483;49.576;6.036;2024-02-26T18:05:23;2.00;;;0.98;;
44762;SDS011;30483;49.576;6.036;2024-02-26T18:07:48;2.25;;;1.00;;
44762;SDS011;30483;49.576;6.036;2024-02-26T18:10:14;2.22;;;1.00;;
44762;SDS011;30483;49.576;6.036;2024-02-26T18:12:40;1.15;;;0.98;;
44762;SDS011;30483;49.576;6.036;2024-02-26T18:15:06;1.95;;;1.00;;
44762;SDS011;30483;49.576;6.036;2024-02-26T18:17:35;1.48;;;1.00;;
44762;SDS011;30483;49.576;6.036;2024-02-26T18:20:02;2.55;;;1.10;;
44762;SDS011;30483;49.576;6.036;2024-02-26T18:22:29;1.77;;;1.00;;
44762;SDS011;30483;49.576;6.036;2024-02-26T18:24:55;5.05;;;1.17;;
44762;SDS011;30483;49.576;6.036;2024-02-26T18:27:21;2.00;;;1.20;;
44762;SDS011;30483;49.576;6.036;2024-02-26T18:29:47;1.63;;;1.20;;
44762;SDS011;30483;49.576;6.036;2024-02-26T18:32:13;1.10;;;1.00;;
44762;SDS011;30483;49.576;6.036;2024-02-26T18:34:40;2.10;;;1.17;;
44762;SDS011;30483;49.576;6.036;2024-02-26T18:37:06;1.70;;;1.20;;
44762;SDS011;30483;49.576;6.036;2024-02-26T18:39:32;1.88;;;1.30;;
44762;SDS011;30483;49.576;6.036;2024-02-26T18:41:58;1.58;;;1.27;;
44762;SDS011;30483;49.576;6.036;2024-02-26T18:44:24;2.70;;;1.30;;
44762;SDS011;30483;49.576;6.036;2024-02-26T18:46:49;1.90;;;1.35;;
44762;SDS011;30483;49.576;6.036;2024-02-26T18:49:15;1.85;;;1.30;;
44762;SDS011;30483;49.576;6.036;2024-02-26T18:51:41;2.13;;;1.50;;
44762;SDS011;30483;49.576;6.036;2024-02-26T18:54:07;1.95;;;1.60;;
44762;SDS011;30483;49.576;6.036;2024-02-26T18:56:33;1.98;;;1.50;;
44762;SDS011;30483;49.576;6.036;2024-02-26T18:58:59;2.75;;;1.80;;
44762;SDS011;30483;49.576;6.036;2024-02-26T19:01:28;2.70;;;1.83;;
44762;SDS011;30483;49.576;6.036;2024-02-26T19:03:54;3.63;;;2.20;;
44762;SDS011;30483;49.576;6.036;2024-02-26T19:06:20;2.30;;;1.92;;
44762;SDS011;30483;49.576;6.036;2024-02-26T19:08:46;2.33;;;1.90;;
44762;SDS011;30483;49.576;6.036;2024-02-26T19:11:12;3.03;;;1.90;;
44762;SDS011;30483;49.576;6.036;2024-02-26T19:13:38;2.17;;;1.85;;
44762;SDS011;30483;49.576;6.036;2024-02-26T19:16:04;3.38;;;2.22;;
44762;SDS011;30483;49.576;6.036;2024-02-26T19:18:31;2.33;;;1.98;;
44762;SDS011;30483;49.576;6.036;2024-02-26T19:20:57;2.30;;;2.10;;
44762;SDS011;30483;49.576;6.036;2024-02-26T19:23:23;2.83;;;2.40;;
44762;SDS011;30483;49.576;6.036;2024-02-26T19:25:49;2.83;;;2.50;;
44762;SDS011;30483;49.576;6.036;2024-02-26T19:28:15;3.10;;;2.60;;
44762;SDS011;30483;49.576;6.036;2024-02-26T19:30:41;3.22;;;2.95;;
44762;SDS011;30483;49.576;6.036;2024-02-26T19:33:06;3.92;;;2.90;;
44762;SDS011;30483;49.576;6.036;2024-02-26T19:35:36;3.30;;;3.00;;
44762;SDS011;30483;49.576;6.036;2024-02-26T19:38:03;3.25;;;2.95;;